Data for 07/23/2015

Time Sea-Level Adjusted Pressure Absolute Pressure Temperature Relative Humidity Dew Point   
(mb) (inHg) (mb) (inHg) (C) (F) (%) (C) (F)
00:05 1016 30 845 24.95 13.9 57.1 88 11.9 53.4
00:10 1016 30 845 24.95 13.9 56.9 88 12 53.6
00:15 1016 30 845 24.95 13.8 56.8 88 11.8 53.3
00:20 1016 30 845 24.95 13.8 56.9 88 11.8 53.3
00:25 1016 30 845 24.95 13.8 56.9 88 11.8 53.3
00:30 1016 30 845 24.95 13.9 56.9 87 11.8 53.2
00:35 1016 30 845 24.95 13.8 56.8 87 11.6 53
00:40 1016 30 846 24.98 14 57.1 84 11.3 52.4
00:45 1016 30 845 24.95 14.1 57.4 84 11.5 52.8
00:50 1016 30 845 24.95 13.9 57.1 86 11.7 53.1
00:55 1016 30 845 24.95 13.8 56.8 86 11.5 52.8
01:00 1016 30 845 24.95 13.8 56.9 86 11.5 52.7
01:05 1016 30 845 24.95 13.8 56.9 85 11.5 52.6
01:10 1016 30 845 24.95 13.9 57.1 86 11.6 52.8
01:15 1016 30 845 24.95 13.9 56.9 87 11.7 53.1
01:20 1016 30 845 24.95 13.8 56.8 88 11.8 53.3
01:25 1016 30 845 24.95 13.7 56.6 88 11.8 53.3
01:30 1016 30 845 24.95 13.7 56.6 88 11.8 53.3
01:35 1016 30 846 24.98 13.7 56.6 88 11.7 53
01:40 1016 30 846 24.98 13.8 56.8 86 11.6 52.8
01:45 1016 30 845 24.95 13.9 57 86 11.6 53
01:50 1016 30 846 24.98 13.9 57.1 85 11.5 52.6
01:55 1016 30 846 24.98 14 57.1 85 11.6 52.8
02:00 1016 30 846 24.98 14 57.2 86 11.7 53.1
02:05 1017 30.03 846 24.98 14 57.2 84 11.4 52.6
02:10 1016 30 846 24.98 14 57.3 85 11.6 52.8
02:15 1016 30 846 24.98 14 57.2 87 11.8 53.3
02:20 1016 30 846 24.98 13.9 56.9 88 11.9 53.4
02:25 1016 30 846 24.98 13.9 57 89 12.1 53.8
02:30 1016 30 846 24.98 13.9 57 90 12.2 54
02:35 1016 30 846 24.98 13.8 56.9 89 12 53.6
02:40 1016 30 846 24.98 13.7 56.7 90 12.2 53.9
02:45 1016 30 846 24.98 13.6 56.4 91 12.1 53.8
02:50 1016 30 846 24.98 13.5 56.3 91 12.1 53.8
02:55 1016 30 845 24.95 13.5 56.2 91 12.1 53.7
03:00 1016 30 845 24.95 13.5 56.2 91 12 53.7
03:05 1016 30 845 24.95 13.4 56.1 90 11.8 53.2
03:10 1016 30 845 24.95 13.6 56.5 90 12 53.7
03:15 1016 30 845 24.95 13.7 56.6 90 12.1 53.8
03:20 1016 30 845 24.95 13.7 56.6 91 12.2 53.9
03:25 1016 30 845 24.95 13.7 56.6 91 12.2 53.9
03:30 1016 30 845 24.95 13.6 56.6 91 12.2 53.9
03:35 1016 30 845 24.95 13.7 56.7 91 12.3 54.1
03:40 1016 30 845 24.95 13.7 56.7 91 12.3 54.1
03:45 1016 30 845 24.95 13.6 56.6 91 12.2 54
03:50 1016 30 845 24.95 13.6 56.5 91 12.2 54
03:55 1016 30 845 24.95 13.5 56.4 91 12.1 53.8
04:00 1016 30 845 24.95 13.4 56.2 91 12 53.7
04:05 1016 30 845 24.95 13.5 56.3 92 12.2 53.9
04:10 1016 30 845 24.95 13.5 56.3 92 12.2 53.9
04:15 1016 30 845 24.95 13.4 56.1 92 12.1 53.8
04:20 1016 30 845 24.95 13.3 56 92 12.1 53.8
04:25 1016 30 845 24.95 13.3 56 92 12.1 53.8
04:30 1016 30 845 24.95 13.3 55.9 93 12.1 53.8
04:35 1016 30 845 24.95 13.3 55.9 92 12.1 53.7
04:40 1016 30 845 24.95 13.2 55.8 92 11.9 53.5
04:45 1016 30 845 24.95 13.3 55.9 92 11.9 53.4
04:50 1016 30 845 24.95 13.3 55.9 91 11.9 53.4
04:55 1016 30 845 24.95 13.3 56 91 11.9 53.4
05:00 1016 30 845 24.95 13.4 56 91 11.8 53.3
05:05 1016 30 845 24.95 13.4 56 90 11.8 53.3
05:10 1016 30 845 24.95 13.4 56 91 11.9 53.3
05:15 1016 30 845 24.95 13.4 56.1 91 11.9 53.4
05:20 1016 30 845 24.95 13.4 56 91 11.9 53.5
05:25 1016 30 845 24.95 13.4 56 90 11.8 53.3
05:30 1016 30 845 24.95 13.5 56.2 90 11.9 53.4
05:35 1016 30 846 24.98 13.6 56.4 89 11.7 53.1
05:40 1016 30 846 24.98 13.6 56.5 89 11.8 53.2
05:45 1016 30 846 24.98 13.7 56.6 89 11.8 53.3
05:50 1016 30 846 24.98 13.8 56.8 89 12 53.7
05:55 1016 30 846 24.98 13.8 56.9 90 12.1 53.9
06:00 1016 30 846 24.98 13.9 57 89 12.1 53.8
06:05 1016 30 846 24.98 13.9 57.1 88 12 53.6
06:10 1017 30.03 846 24.98 14.1 57.3 89 12.2 54
06:15 1017 30.03 846 24.98 14 57.3 88 12.1 53.8
06:20 1017 30.03 846 24.98 14 57.3 89 12.3 54.1
06:25 1017 30.03 846 24.98 14.1 57.4 89 12.4 54.3
06:30 1017 30.03 846 24.98 14.1 57.4 89 12.4 54.4
06:35 1017 30.03 846 24.98 14.1 57.4 90 12.4 54.4
06:40 1017 30.03 846 24.98 14.1 57.4 89 12.4 54.3
06:45 1017 30.03 846 24.98 14.1 57.3 90 12.4 54.4
06:50 1017 30.03 846 24.98 14 57.2 90 12.4 54.2
06:55 1017 30.03 846 24.98 13.8 56.9 91 12.4 54.3
07:00 1017 30.03 847 25.01 13.8 56.8 91 12.4 54.3
07:05 1017 30.03 847 25.01 13.8 56.8 92 12.4 54.4
07:10 1017 30.03 847 25.01 13.8 56.8 92 12.5 54.5
07:15 1017 30.03 847 25.01 13.7 56.7 92 12.5 54.4
07:20 1017 30.03 847 25.01 13.7 56.6 92 12.4 54.4
07:25 1018 30.06 847 25.01 13.6 56.5 92 12.3 54.1
07:30 1018 30.06 847 25.01 13.2 55.8 92 12 53.7
07:35 1018 30.06 847 25.01 13 55.4 92 11.8 53.2
07:40 1018 30.06 847 25.01 12.9 55.1 93 11.8 53.2
07:45 1018 30.06 847 25.01 13.1 55.5 93 12 53.6
07:50 1018 30.06 847 25.01 13.2 55.7 93 12.1 53.8
07:55 1018 30.06 847 25.01 13.2 55.7 93 12.1 53.8
08:00 1018 30.06 847 25.01 13.1 55.5 93 11.9 53.4
08:05 1018 30.06 847 25.01 13 55.3 92 11.7 53.1
08:10 1018 30.06 847 25.01 13 55.4 92 11.8 53.2
08:15 1018 30.06 848 25.04 13.1 55.7 92 11.9 53.4
08:20 1018 30.06 848 25.04 13.2 55.7 92 11.9 53.4
08:25 1019 30.09 848 25.04 13.3 55.9 92 12 53.6
08:30 1019 30.09 848 25.04 13.3 56 92 12 53.6
08:35 1019 30.09 848 25.04 13.4 56 92 12 53.6
08:40 1019 30.09 848 25.04 13.4 56.1 92 12 53.7
08:45 1019 30.09 848 25.04 13.4 56 91 11.9 53.4
08:50 1019 30.09 848 25.04 13.4 56 91 11.9 53.4
08:55 1019 30.09 848 25.04 13.4 56.1 91 12 53.5
09:00 1019 30.09 848 25.04 13.4 56.2 90 11.9 53.4
09:05 1019 30.09 848 25.04 13.5 56.2 89 11.8 53.2
09:10 1019 30.09 848 25.04 13.5 56.3 89 11.8 53.2
09:15 1019 30.09 848 25.04 13.6 56.5 89 11.9 53.4
09:20 1019 30.09 848 25.04 13.6 56.5 89 11.8 53.3
09:25 1019 30.09 848 25.04 13.8 56.8 89 11.9 53.5
09:30 1019 30.09 848 25.04 13.8 56.8 89 12.1 53.7
09:35 1019 30.09 848 25.04 13.8 56.9 89 12 53.6
09:40 1019 30.09 848 25.04 13.8 56.8 88 11.9 53.4
09:45 1019 30.09 848 25.04 13.9 57 88 12 53.6
09:50 1019 30.09 848 25.04 13.8 56.9 88 11.9 53.5
09:55 1019 30.09 848 25.04 14 57.1 87 11.9 53.4
10:00 1019 30.09 848 25.04 14.1 57.3 88 12 53.7
10:05 1019 30.09 849 25.07 14.2 57.5 87 12.2 53.9
10:10 1019 30.09 849 25.07 14.3 57.7 86 12 53.7
10:15 1019 30.09 849 25.07 14.3 57.7 87 12.1 53.8
10:20 1019 30.09 849 25.07 14.4 57.9 86 12.2 53.9
10:25 1020 30.12 849 25.07 14.5 58.1 86 12.2 54
10:30 1020 30.12 849 25.07 14.5 58.2 85 12.1 53.7
10:35 1020 30.12 849 25.07 14.6 58.4 85 12.2 54
10:40 1020 30.12 849 25.07 14.8 58.6 84 12.2 53.9
10:45 1020 30.12 849 25.07 14.8 58.7 84 12.2 54
10:50 1020 30.12 849 25.07 14.9 58.8 83 12 53.6
10:55 1020 30.12 849 25.07 14.8 58.7 83 12 53.6
11:00 1020 30.12 849 25.07 14.9 58.9 83 12.1 53.7
11:05 1020 30.12 849 25.07 15 59 84 12.3 54.1
11:10 1020 30.12 849 25.07 15.2 59.4 83 12.4 54.4
11:15 1020 30.12 849 25.07 15.3 59.6 83 12.6 54.6
11:20 1020 30.12 849 25.07 15.4 59.8 82 12.3 54.2
11:25 1020 30.12 849 25.07 15.7 60.3 80 12.2 54
11:30 1020 30.12 849 25.07 15.9 60.5 80 12.4 54.3
11:35 1020 30.12 849 25.07 15.7 60.2 81 12.4 54.3
11:40 1020 30.12 849 25.07 15.4 59.8 82 12.3 54.2
11:45 1020 30.12 849 25.07 15.4 59.7 81 12.3 54.1
11:50 1020 30.12 849 25.07 15.4 59.6 82 12.4 54.3
11:55 1020 30.12 849 25.07 15.6 60.1 80 12.3 54.1
12:00 1020 30.12 849 25.07 16 60.8 78 12.3 54.1
12:05 1020 30.12 849 25.07 16.2 61.2 75 11.9 53.4
12:10 1020 30.12 849 25.07 16.9 62.3 75 12.5 54.5
12:15 1020 30.12 849 25.07 17.8 64 70 12.3 54.1
12:20 1020 30.12 849 25.07 17.7 63.8 72 12.6 54.6
12:25 1020 30.12 849 25.07 16.8 62.3 74 12.3 54.1
12:30 1020 30.12 849 25.07 16.8 62.3 74 12.1 53.8
12:35 1020 30.12 849 25.07 17.5 63.4 67 11.4 52.4
12:40 1020 30.12 849 25.07 18.4 65.2 63 11.4 52.5
12:45 1020 30.12 849 25.07 18.9 65.9 61 11.3 52.3
12:50 1019 30.09 849 25.07 19.3 66.7 55 10.2 50.3
12:55 1019 30.09 849 25.07 19.3 66.7 54 9.8 49.6
13:00 1019 30.09 849 25.07 19.9 67.9 55 10.6 51.1
13:05 1019 30.09 849 25.07 19.7 67.4 55 10.5 50.8
13:10 1019 30.09 849 25.07 19.2 66.6 56 10.3 50.6
13:15 1019 30.09 848 25.04 19.7 67.5 56 10.9 51.7
13:20 1019 30.09 848 25.04 19.5 67 58 11 51.8
13:25 1019 30.09 848 25.04 19.4 67 58 11.2 52.1
13:30 1019 30.09 848 25.04 20.5 69 57 11.8 53.3
13:35 1019 30.09 848 25.04 20.1 68.3 53 10.3 50.5
13:40 1019 30.09 848 25.04 20.2 68.3 52 10.2 50.4
13:45 1019 30.09 848 25.04 20.9 69.5 51 10.4 50.8
13:50 1019 30.09 848 25.04 21 69.7 51 10.7 51.2
13:55 1019 30.09 848 25.04 20.1 68.2 51 9.9 49.7
14:00 1019 30.09 848 25.04 20 68.1 53 10.3 50.5
14:05 1019 30.09 848 25.04 20.6 69.1 50 9.8 49.7
14:10 1019 30.09 848 25.04 21.5 70.8 45 9.3 48.7
14:15 1018 30.06 848 25.04 21.1 70 46 9.2 48.6
14:20 1018 30.06 848 25.04 21.7 71.1 44 9 48.2
14:25 1018 30.06 848 25.04 22.3 72.1 42 8.9 48
14:30 1018 30.06 848 25.04 22.8 73 40 8.6 47.4
14:35 1018 30.06 848 25.04 23.1 73.6 39 8.7 47.7
14:40 1018 30.06 848 25.04 22.8 73.1 40 8.7 47.7
14:45 1018 30.06 847 25.01 23.1 73.6 39 8.6 47.6
14:50 1018 30.06 847 25.01 22.8 73.1 43 9.7 49.4
14:55 1018 30.06 847 25.01 21.8 71.2 44 9.2 48.6
15:00 1018 30.06 847 25.01 21.6 70.9 44 9.1 48.4
15:05 1018 30.06 847 25.01 21.1 69.9 46 9.2 48.5
15:10 1018 30.06 847 25.01 22.1 71.7 41 8.3 47
15:15 1018 30.06 847 25.01 22.3 72.2 40 8.3 47
15:20 1018 30.06 847 25.01 23 73.4 38 8.2 46.8
15:25 1018 30.06 847 25.01 22.8 73.1 40 8.7 47.6
15:30 1018 30.06 847 25.01 22.4 72.4 42 9 48.2
15:35 1018 30.06 847 25.01 22 71.6 42 8.7 47.7
15:40 1018 30.06 847 25.01 22 71.7 42 8.6 47.5
15:45 1018 30.06 847 25.01 21.9 71.4 41 8.2 46.8
15:50 1018 30.06 847 25.01 21.4 70.6 41 7.9 46.3
15:55 1017 30.03 847 25.01 21.4 70.6 43 8.4 47.2
16:00 1017 30.03 846 24.98 21.5 70.7 43 8.5 47.3
16:05 1017 30.03 846 24.98 21.6 70.8 43 8.7 47.6
16:10 1017 30.03 846 24.98 21.4 70.6 42 8.3 46.9
16:15 1017 30.03 846 24.98 21.3 70.3 45 8.9 48.1
16:20 1017 30.03 846 24.98 20.8 69.5 49 10 50
16:25 1017 30.03 847 25.01 20.3 68.6 54 11 51.8
16:30 1018 30.06 847 25.01 19.8 67.7 61 12.2 53.9
16:35 1018 30.06 847 25.01 19.4 66.8 59 11.4 52.5
16:40 1018 30.06 848 25.04 17.5 63.6 69 11.9 53.4
16:45 1019 30.09 848 25.04 15.7 60.2 71 10.4 50.8
16:50 1018 30.06 848 25.04 15.5 59.8 71 10.4 50.7
16:55 1018 30.06 848 25.04 15.7 60.3 70 10.4 50.7
17:00 1019 30.09 848 25.04 15.9 60.5 70 10.4 50.8
17:05 1019 30.09 848 25.04 16.1 60.9 72 11 51.8
17:10 1019 30.09 848 25.04 16.3 61.3 70 11 51.7
17:15 1019 30.09 849 25.07 16.4 61.6 68 10.6 51.1
17:20 1020 30.12 849 25.07 16.6 61.8 67 10.5 50.9
17:25 1020 30.12 849 25.07 16.5 61.8 73 11.7 53
17:30 1020 30.12 850 25.1 16.3 61.3 74 11.6 52.9
17:35 1020 30.12 850 25.1 16.3 61.3 72 11.2 52.2
17:40 1021 30.15 850 25.1 16 60.8 79 12.4 54.3
17:45 1020 30.12 850 25.1 14.6 58.4 81 11.4 52.6
17:50 1020 30.12 850 25.1 13.8 56.8 83 11 51.8
17:55 1020 30.12 849 25.07 13.6 56.5 82 10.7 51.2
18:00 1020 30.12 849 25.07 13.8 56.8 79 10.2 50.3
18:05 1020 30.12 850 25.1 13.9 57 77 10 50.1
18:10 1021 30.15 850 25.1 14.1 57.4 77 10.2 50.4
18:15 1021 30.15 850 25.1 14.2 57.5 75 9.9 49.9
18:20 1020 30.12 850 25.1 14.1 57.4 77 10.2 50.4
18:25 1020 30.12 850 25.1 14 57.2 77 10.2 50.3
18:30 1020 30.12 849 25.07 14.1 57.4 76 10 50.1
18:35 1020 30.12 850 25.1 14.1 57.5 78 10.5 50.9
18:40 1020 30.12 850 25.1 14.1 57.3 77 10 50.1
18:45 1020 30.12 850 25.1 14.1 57.4 75 9.8 49.7
18:50 1020 30.12 850 25.1 14.2 57.5 76 9.9 49.9
18:55 1020 30.12 849 25.07 14.1 57.5 76 10 50
19:00 1020 30.12 849 25.07 14.2 57.6 75 10 49.9
19:05 1020 30.12 849 25.07 14.3 57.8 73 9.7 49.4
19:10 1020 30.12 849 25.07 14.4 57.9 74 9.8 49.7
19:15 1020 30.12 849 25.07 14.5 58.1 72 9.6 49.2
19:20 1020 30.12 849 25.07 14.6 58.3 74 10 50
19:25 1021 30.15 850 25.1 14.8 58.7 71 9.7 49.4
19:30 1021 30.15 850 25.1 15.1 59.1 73 10.2 50.4
19:35 1022 30.18 851 25.13 15 59 77 10.9 51.7
19:40 1021 30.15 850 25.1 14.8 58.6 78 11 51.8
19:45 1020 30.12 849 25.07 14.1 57.4 83 11.3 52.4
19:50 1020 30.12 849 25.07 13.7 56.6 84 11 51.8
19:55 1020 30.12 849 25.07 13.6 56.4 84 10.9 51.5
20:00 1020 30.12 849 25.07 13.7 56.6 85 11.2 52.2
20:05 1020 30.12 849 25.07 13.7 56.7 85 11.2 52.1
20:10 1020 30.12 849 25.07 13.5 56.4 86 11.2 52.1
20:15 1020 30.12 849 25.07 13.3 56 84 10.7 51.3
20:20 1020 30.12 849 25.07 13.2 55.7 83 10.3 50.6
20:25 1020 30.12 849 25.07 13.2 55.7 81 10 50.1
20:30 1020 30.12 849 25.07 13.2 55.8 81 10.1 50.2
20:35 1020 30.12 849 25.07 13.1 55.5 81 10 49.9
20:40 1020 30.12 850 25.1 13 55.4 80 9.6 49.3
20:45 1020 30.12 850 25.1 13.3 55.9 77 9.4 48.9
20:50 1021 30.15 850 25.1 13.5 56.4 74 9 48.2
20:55 1021 30.15 850 25.1 13.7 56.7 75 9.4 48.9
21:00 1020 30.12 850 25.1 13.5 56.3 77 9.6 49.3
21:05 1020 30.12 850 25.1 13.1 55.6 78 9.4 49
21:10 1020 30.12 850 25.1 12.8 55 82 9.8 49.7
21:15 1020 30.12 850 25.1 12.5 54.6 82 9.6 49.2
21:20 1021 30.15 850 25.1 12.7 54.8 80 9.3 48.7
21:25 1021 30.15 850 25.1 12.8 55 77 8.9 48
21:30 1021 30.15 850 25.1 13.1 55.6 76 9.1 48.3
21:35 1021 30.15 850 25.1 13.2 55.8 75 8.9 48
21:40 1021 30.15 850 25.1 13.3 56 76 9.2 48.6
21:45 1021 30.15 850 25.1 13.2 55.8 76 9 48.2
21:50 1021 30.15 850 25.1 13.2 55.8 75 8.9 48
21:55 1021 30.15 850 25.1 13.3 55.9 76 9.1 48.3
22:00 1021 30.15 850 25.1 13.2 55.8 76 9.1 48.3
22:05 1021 30.15 850 25.1 13.3 55.9 76 9.1 48.4
22:10 1021 30.15 850 25.1 13.3 55.9 74 8.8 47.9
22:15 1021 30.15 850 25.1 13.4 56.1 75 9 48.2
22:20 1021 30.15 850 25.1 13.4 56.1 74 9 48.1
22:25 1021 30.15 850 25.1 13.4 56.1 74 9 48.2
22:30 1021 30.15 850 25.1 13.3 56 75 9 48.2
22:35 1021 30.15 850 25.1 13.3 55.9 76 9.2 48.5
22:40 1021 30.15 850 25.1 13.1 55.6 77 9.2 48.5
22:45 1021 30.15 850 25.1 13 55.4 76 8.9 48.1
22:50 1021 30.15 851 25.13 13.1 55.6 76 9 48.1
22:55 1021 30.15 851 25.13 13.2 55.8 72 8.4 47.2
23:00 1021 30.15 851 25.13 13.3 56 73 8.7 47.6
23:05 1021 30.15 851 25.13 13.3 55.9 73 8.6 47.5
23:10 1022 30.18 851 25.13 13.4 56 73 8.7 47.7
23:15 1022 30.18 851 25.13 13.3 56 74 8.8 47.8
23:20 1022 30.18 851 25.13 13.3 55.9 75 8.9 48.1
23:25 1022 30.18 851 25.13 13 55.5 76 9 48.1
23:30 1021 30.15 851 25.13 12.8 55 79 9.3 48.7
23:35 1021 30.15 851 25.13 12.3 54.2 81 9.1 48.4
23:40 1021 30.15 851 25.13 12.3 54.2 80 9 48.2
23:45 1021 30.15 851 25.13 12.3 54.1 81 9.1 48.4
23:50 1021 30.15 851 25.13 12.2 54 80 9 48.2
23:55 1021 30.15 851 25.13 12.3 54.1 81 9.1 48.4
24:00 1021 30.15 851 25.13 12.2 53.9 82 9.2 48.5